sensor_id;sensor_type;location;lat;lon;timestamp;P1;durP1;ratioP1;P2;durP2;ratioP2
25319;SDS011;13256;49.012;8.610;2023-11-21T00:01:32;1.80;;;0.80;;
25319;SDS011;13256;49.012;8.610;2023-11-21T00:04:03;4.72;;;0.63;;
25319;SDS011;13256;49.012;8.610;2023-11-21T00:06:30;1.30;;;0.70;;
25319;SDS011;13256;49.012;8.610;2023-11-21T00:09:13;2.08;;;0.90;;
25319;SDS011;13256;49.012;8.610;2023-11-21T00:11:46;1.40;;;0.80;;
25319;SDS011;13256;49.012;8.610;2023-11-21T00:14:15;1.85;;;0.60;;
25319;SDS011;13256;49.012;8.610;2023-11-21T00:16:42;2.55;;;0.70;;
25319;SDS011;13256;49.012;8.610;2023-11-21T00:19:09;2.40;;;0.95;;
25319;SDS011;13256;49.012;8.610;2023-11-21T00:21:36;2.25;;;0.95;;
25319;SDS011;13256;49.012;8.610;2023-11-21T00:24:08;2.78;;;0.63;;
25319;SDS011;13256;49.012;8.610;2023-11-21T00:26:35;3.13;;;0.90;;
25319;SDS011;13256;49.012;8.610;2023-11-21T00:29:09;1.75;;;0.85;;
25319;SDS011;13256;49.012;8.610;2023-11-21T00:31:37;2.80;;;0.75;;
25319;SDS011;13256;49.012;8.610;2023-11-21T00:34:05;3.55;;;0.98;;
25319;SDS011;13256;49.012;8.610;2023-11-21T00:36:37;2.30;;;0.82;;
25319;SDS011;13256;49.012;8.610;2023-11-21T00:39:11;4.93;;;1.30;;
25319;SDS011;13256;49.012;8.610;2023-11-21T00:41:38;3.50;;;0.75;;
25319;SDS011;13256;49.012;8.610;2023-11-21T00:44:05;1.92;;;0.70;;
25319;SDS011;13256;49.012;8.610;2023-11-21T00:46:32;2.22;;;0.77;;
25319;SDS011;13256;49.012;8.610;2023-11-21T00:49:03;2.38;;;0.90;;
25319;SDS011;13256;49.012;8.610;2023-11-21T00:51:31;4.57;;;0.75;;
25319;SDS011;13256;49.012;8.610;2023-11-21T00:54:02;3.20;;;1.23;;
25319;SDS011;13256;49.012;8.610;2023-11-21T00:56:29;2.38;;;1.05;;
25319;SDS011;13256;49.012;8.610;2023-11-21T00:58:56;5.65;;;1.25;;
25319;SDS011;13256;49.012;8.610;2023-11-21T01:01:24;2.90;;;1.17;;
25319;SDS011;13256;49.012;8.610;2023-11-21T01:07:18;6.50;;;1.05;;
25319;SDS011;13256;49.012;8.610;2023-11-21T01:09:47;7.88;;;1.63;;
25319;SDS011;13256;49.012;8.610;2023-11-21T01:12:17;3.90;;;0.80;;
25319;SDS011;13256;49.012;8.610;2023-11-21T01:17:36;3.10;;;0.98;;
25319;SDS011;13256;49.012;8.610;2023-11-21T01:20:10;6.38;;;1.25;;
25319;SDS011;13256;49.012;8.610;2023-11-21T01:22:52;4.88;;;0.90;;
25319;SDS011;13256;49.012;8.610;2023-11-21T01:25:20;5.18;;;1.42;;
25319;SDS011;13256;49.012;8.610;2023-11-21T01:27:52;5.43;;;1.48;;
25319;SDS011;13256;49.012;8.610;2023-11-21T01:30:25;5.88;;;0.80;;
25319;SDS011;13256;49.012;8.610;2023-11-21T01:32:55;6.70;;;1.80;;
25319;SDS011;13256;49.012;8.610;2023-11-21T01:35:23;3.25;;;1.20;;
25319;SDS011;13256;49.012;8.610;2023-11-21T01:37:53;4.68;;;1.10;;
25319;SDS011;13256;49.012;8.610;2023-11-21T01:40:29;3.85;;;0.82;;
25319;SDS011;13256;49.012;8.610;2023-11-21T01:42:58;4.20;;;1.02;;
25319;SDS011;13256;49.012;8.610;2023-11-21T01:45:29;3.42;;;1.02;;
25319;SDS011;13256;49.012;8.610;2023-11-21T01:51:17;3.25;;;1.30;;
25319;SDS011;13256;49.012;8.610;2023-11-21T01:53:48;5.15;;;1.50;;
25319;SDS011;13256;49.012;8.610;2023-11-21T01:56:19;3.90;;;1.45;;
25319;SDS011;13256;49.012;8.610;2023-11-21T01:58:47;3.97;;;1.40;;
25319;SDS011;13256;49.012;8.610;2023-11-21T02:01:25;4.13;;;1.30;;
25319;SDS011;13256;49.012;8.610;2023-11-21T02:04:00;3.33;;;1.15;;
25319;SDS011;13256;49.012;8.610;2023-11-21T02:06:28;7.13;;;1.48;;
25319;SDS011;13256;49.012;8.610;2023-11-21T02:08:58;2.60;;;1.13;;
25319;SDS011;13256;49.012;8.610;2023-11-21T02:14:08;7.70;;;1.42;;
25319;SDS011;13256;49.012;8.610;2023-11-21T02:19:32;4.68;;;0.98;;
25319;SDS011;13256;49.012;8.610;2023-11-21T02:22:05;6.65;;;1.42;;
25319;SDS011;13256;49.012;8.610;2023-11-21T02:24:34;2.88;;;1.42;;
25319;SDS011;13256;49.012;8.610;2023-11-21T02:27:05;3.53;;;1.35;;
25319;SDS011;13256;49.012;8.610;2023-11-21T02:29:32;1.60;;;0.52;;
25319;SDS011;13256;49.012;8.610;2023-11-21T02:32:03;3.13;;;1.08;;
25319;SDS011;13256;49.012;8.610;2023-11-21T02:37:12;4.53;;;0.93;;
25319;SDS011;13256;49.012;8.610;2023-11-21T02:39:42;4.57;;;1.20;;
25319;SDS011;13256;49.012;8.610;2023-11-21T02:42:09;1.23;;;0.55;;
25319;SDS011;13256;49.012;8.610;2023-11-21T02:44:43;2.58;;;1.00;;
25319;SDS011;13256;49.012;8.610;2023-11-21T02:47:10;3.10;;;0.93;;
25319;SDS011;13256;49.012;8.610;2023-11-21T02:49:41;3.75;;;1.02;;
25319;SDS011;13256;49.012;8.610;2023-11-21T02:52:11;3.75;;;0.90;;
25319;SDS011;13256;49.012;8.610;2023-11-21T02:54:44;2.35;;;1.02;;
25319;SDS011;13256;49.012;8.610;2023-11-21T02:57:16;5.80;;;1.75;;
25319;SDS011;13256;49.012;8.610;2023-11-21T02:59:45;4.78;;;2.05;;
25319;SDS011;13256;49.012;8.610;2023-11-21T03:02:13;5.50;;;1.60;;
25319;SDS011;13256;49.012;8.610;2023-11-21T03:07:48;5.57;;;3.13;;
25319;SDS011;13256;49.012;8.610;2023-11-21T03:13:13;2.10;;;1.10;;
25319;SDS011;13256;49.012;8.610;2023-11-21T03:15:45;2.63;;;1.20;;
25319;SDS011;13256;49.012;8.610;2023-11-21T03:18:16;3.42;;;1.00;;
25319;SDS011;13256;49.012;8.610;2023-11-21T03:20:47;1.45;;;1.10;;
25319;SDS011;13256;49.012;8.610;2023-11-21T03:23:19;1.38;;;0.75;;
25319;SDS011;13256;49.012;8.610;2023-11-21T03:25:47;2.78;;;1.13;;
25319;SDS011;13256;49.012;8.610;2023-11-21T03:28:16;3.90;;;1.20;;
25319;SDS011;13256;49.012;8.610;2023-11-21T03:31:11;3.50;;;1.55;;
25319;SDS011;13256;49.012;8.610;2023-11-21T03:36:44;4.03;;;1.13;;
25319;SDS011;13256;49.012;8.610;2023-11-21T03:39:15;5.43;;;1.25;;
25319;SDS011;13256;49.012;8.610;2023-11-21T03:41:44;1.77;;;1.08;;
25319;SDS011;13256;49.012;8.610;2023-11-21T03:44:11;6.15;;;1.10;;
25319;SDS011;13256;49.012;8.610;2023-11-21T03:46:44;2.33;;;1.02;;
25319;SDS011;13256;49.012;8.610;2023-11-21T03:49:13;16.38;;;5.93;;
25319;SDS011;13256;49.012;8.610;2023-11-21T03:51:41;20.15;;;6.63;;
25319;SDS011;13256;49.012;8.610;2023-11-21T03:54:13;5.63;;;1.70;;
25319;SDS011;13256;49.012;8.610;2023-11-21T03:56:40;1.95;;;1.02;;
25319;SDS011;13256;49.012;8.610;2023-11-21T03:59:10;3.85;;;1.48;;
25319;SDS011;13256;49.012;8.610;2023-11-21T04:01:38;2.78;;;1.40;;
25319;SDS011;13256;49.012;8.610;2023-11-21T04:04:06;4.38;;;2.08;;
25319;SDS011;13256;49.012;8.610;2023-11-21T04:06:42;10.30;;;5.00;;
25319;SDS011;13256;49.012;8.610;2023-11-21T04:09:11;13.63;;;6.85;;
25319;SDS011;13256;49.012;8.610;2023-11-21T04:11:39;14.73;;;7.35;;
25319;SDS011;13256;49.012;8.610;2023-11-21T04:14:07;15.38;;;6.30;;
25319;SDS011;13256;49.012;8.610;2023-11-21T04:16:37;8.23;;;3.67;;
25319;SDS011;13256;49.012;8.610;2023-11-21T04:19:08;11.43;;;3.47;;
25319;SDS011;13256;49.012;8.610;2023-11-21T04:21:41;5.97;;;2.70;;
25319;SDS011;13256;49.012;8.610;2023-11-21T04:24:09;8.45;;;5.60;;
25319;SDS011;13256;49.012;8.610;2023-11-21T04:26:39;8.82;;;5.50;;
25319;SDS011;13256;49.012;8.610;2023-11-21T04:29:06;5.25;;;2.72;;
25319;SDS011;13256;49.012;8.610;2023-11-21T04:31:37;5.90;;;3.30;;
25319;SDS011;13256;49.012;8.610;2023-11-21T04:37:00;7.80;;;2.90;;
25319;SDS011;13256;49.012;8.610;2023-11-21T04:39:30;2.75;;;2.13;;
25319;SDS011;13256;49.012;8.610;2023-11-21T04:42:02;3.72;;;1.10;;
25319;SDS011;13256;49.012;8.610;2023-11-21T04:44:59;3.40;;;1.10;;
25319;SDS011;13256;49.012;8.610;2023-11-21T04:47:30;1.33;;;1.00;;
25319;SDS011;13256;49.012;8.610;2023-11-21T04:50:00;3.25;;;1.38;;
25319;SDS011;13256;49.012;8.610;2023-11-21T04:52:33;2.92;;;1.10;;
25319;SDS011;13256;49.012;8.610;2023-11-21T04:55:01;2.40;;;1.00;;
25319;SDS011;13256;49.012;8.610;2023-11-21T04:57:31;4.30;;;1.30;;
25319;SDS011;13256;49.012;8.610;2023-11-21T05:00:02;3.72;;;1.30;;
25319;SDS011;13256;49.012;8.610;2023-11-21T05:02:32;4.40;;;1.10;;
25319;SDS011;13256;49.012;8.610;2023-11-21T05:05:02;2.40;;;0.95;;
25319;SDS011;13256;49.012;8.610;2023-11-21T05:16:43;2.70;;;1.00;;
25319;SDS011;13256;49.012;8.610;2023-11-21T05:54:08;3.10;;;1.88;;
25319;SDS011;13256;49.012;8.610;2023-11-21T06:02:41;6.90;;;2.22;;
25319;SDS011;13256;49.012;8.610;2023-11-21T06:05:09;4.22;;;2.45;;
25319;SDS011;13256;49.012;8.610;2023-11-21T06:07:40;4.90;;;2.40;;
25319;SDS011;13256;49.012;8.610;2023-11-21T06:10:14;6.03;;;2.67;;
25319;SDS011;13256;49.012;8.610;2023-11-21T06:12:47;3.22;;;2.00;;
25319;SDS011;13256;49.012;8.610;2023-11-21T06:15:16;5.90;;;2.45;;
25319;SDS011;13256;49.012;8.610;2023-11-21T06:17:47;5.65;;;2.67;;
25319;SDS011;13256;49.012;8.610;2023-11-21T06:20:25;6.53;;;2.63;;
25319;SDS011;13256;49.012;8.610;2023-11-21T06:22:53;2.45;;;1.80;;
25319;SDS011;13256;49.012;8.610;2023-11-21T06:25:20;3.15;;;2.00;;
25319;SDS011;13256;49.012;8.610;2023-11-21T06:27:48;4.60;;;2.15;;
25319;SDS011;13256;49.012;8.610;2023-11-21T06:30:22;5.40;;;2.92;;
25319;SDS011;13256;49.012;8.610;2023-11-21T06:32:50;3.70;;;2.38;;
25319;SDS011;13256;49.012;8.610;2023-11-21T06:43:48;4.78;;;2.10;;
25319;SDS011;13256;49.012;8.610;2023-11-21T06:46:16;3.85;;;1.63;;
25319;SDS011;13256;49.012;8.610;2023-11-21T06:51:39;5.85;;;1.80;;
25319;SDS011;13256;49.012;8.610;2023-11-21T06:57:11;3.05;;;2.20;;
25319;SDS011;13256;49.012;8.610;2023-11-21T06:59:44;1.85;;;1.70;;
25319;SDS011;13256;49.012;8.610;2023-11-21T07:02:16;1.75;;;1.27;;
25319;SDS011;13256;49.012;8.610;2023-11-21T07:23:12;4.93;;;3.53;;
25319;SDS011;13256;49.012;8.610;2023-11-21T07:28:37;3.42;;;2.10;;
25319;SDS011;13256;49.012;8.610;2023-11-21T07:31:05;2.60;;;1.88;;
25319;SDS011;13256;49.012;8.610;2023-11-21T07:33:35;4.50;;;2.47;;
25319;SDS011;13256;49.012;8.610;2023-11-21T07:36:06;4.30;;;2.25;;
25319;SDS011;13256;49.012;8.610;2023-11-21T07:38:33;3.67;;;2.13;;
25319;SDS011;13256;49.012;8.610;2023-11-21T07:41:02;5.22;;;2.13;;
25319;SDS011;13256;49.012;8.610;2023-11-21T07:43:29;3.42;;;2.47;;
25319;SDS011;13256;49.012;8.610;2023-11-21T07:46:02;2.75;;;2.08;;
25319;SDS011;13256;49.012;8.610;2023-11-21T07:48:31;4.63;;;2.92;;
25319;SDS011;13256;49.012;8.610;2023-11-21T07:51:02;3.08;;;2.35;;
25319;SDS011;13256;49.012;8.610;2023-11-21T08:02:21;3.72;;;2.63;;
25319;SDS011;13256;49.012;8.610;2023-11-21T08:04:49;3.47;;;2.72;;
25319;SDS011;13256;49.012;8.610;2023-11-21T08:16:04;7.85;;;4.30;;
25319;SDS011;13256;49.012;8.610;2023-11-21T08:18:37;7.88;;;4.20;;
25319;SDS011;13256;49.012;8.610;2023-11-21T08:24:00;7.25;;;4.72;;
25319;SDS011;13256;49.012;8.610;2023-11-21T08:29:46;5.78;;;3.67;;
25319;SDS011;13256;49.012;8.610;2023-11-21T08:32:18;6.88;;;3.65;;
25319;SDS011;13256;49.012;8.610;2023-11-21T08:34:51;7.05;;;4.05;;
25319;SDS011;13256;49.012;8.610;2023-11-21T08:40:24;10.38;;;5.25;;
25319;SDS011;13256;49.012;8.610;2023-11-21T09:12:05;9.25;;;5.97;;
25319;SDS011;13256;49.012;8.610;2023-11-21T09:14:36;7.85;;;5.18;;
25319;SDS011;13256;49.012;8.610;2023-11-21T09:17:06;13.25;;;6.63;;
25319;SDS011;13256;49.012;8.610;2023-11-21T09:19:39;9.63;;;6.25;;
25319;SDS011;13256;49.012;8.610;2023-11-21T09:22:07;9.50;;;6.03;;
25319;SDS011;13256;49.012;8.610;2023-11-21T09:24:33;12.10;;;5.63;;
25319;SDS011;13256;49.012;8.610;2023-11-21T09:27:01;9.95;;;6.35;;
25319;SDS011;13256;49.012;8.610;2023-11-21T09:29:28;14.57;;;8.48;;
25319;SDS011;13256;49.012;8.610;2023-11-21T09:31:59;10.40;;;6.95;;
25319;SDS011;13256;49.012;8.610;2023-11-21T09:34:27;12.75;;;7.10;;
25319;SDS011;13256;49.012;8.610;2023-11-21T09:37:22;16.13;;;8.27;;
25319;SDS011;13256;49.012;8.610;2023-11-21T09:39:51;19.17;;;10.15;;
25319;SDS011;13256;49.012;8.610;2023-11-21T09:42:25;23.70;;;12.07;;
25319;SDS011;13256;49.012;8.610;2023-11-21T09:47:46;20.65;;;11.40;;
25319;SDS011;13256;49.012;8.610;2023-11-21T09:50:14;21.67;;;11.63;;
25319;SDS011;13256;49.012;8.610;2023-11-21T09:55:34;23.65;;;13.38;;
25319;SDS011;13256;49.012;8.610;2023-11-21T09:58:04;25.25;;;13.98;;
25319;SDS011;13256;49.012;8.610;2023-11-21T10:00:34;21.67;;;12.68;;
25319;SDS011;13256;49.012;8.610;2023-11-21T10:03:02;26.10;;;13.07;;
25319;SDS011;13256;49.012;8.610;2023-11-21T10:05:29;22.55;;;12.77;;
25319;SDS011;13256;49.012;8.610;2023-11-21T10:08:00;22.33;;;12.10;;
25319;SDS011;13256;49.012;8.610;2023-11-21T10:10:27;24.77;;;13.80;;
25319;SDS011;13256;49.012;8.610;2023-11-21T10:12:57;22.27;;;12.20;;
25319;SDS011;13256;49.012;8.610;2023-11-21T10:15:29;24.35;;;12.73;;
25319;SDS011;13256;49.012;8.610;2023-11-21T10:18:04;21.77;;;11.80;;
25319;SDS011;13256;49.012;8.610;2023-11-21T10:20:35;24.67;;;12.57;;
25319;SDS011;13256;49.012;8.610;2023-11-21T10:23:06;23.70;;;12.70;;
25319;SDS011;13256;49.012;8.610;2023-11-21T10:25:38;22.92;;;11.82;;
25319;SDS011;13256;49.012;8.610;2023-11-21T10:28:11;24.30;;;12.88;;
25319;SDS011;13256;49.012;8.610;2023-11-21T10:30:38;24.67;;;12.85;;
25319;SDS011;13256;49.012;8.610;2023-11-21T10:33:11;22.88;;;11.65;;
25319;SDS011;13256;49.012;8.610;2023-11-21T10:38:08;22.60;;;11.75;;
25319;SDS011;13256;49.012;8.610;2023-11-21T10:40:40;24.38;;;12.38;;
25319;SDS011;13256;49.012;8.610;2023-11-21T10:43:19;28.02;;;15.52;;
25319;SDS011;13256;49.012;8.610;2023-11-21T10:45:50;21.08;;;12.23;;
25319;SDS011;13256;49.012;8.610;2023-11-21T10:48:20;24.85;;;12.57;;
25319;SDS011;13256;49.012;8.610;2023-11-21T10:50:49;25.77;;;13.17;;
25319;SDS011;13256;49.012;8.610;2023-11-21T10:53:16;23.52;;;12.77;;
25319;SDS011;13256;49.012;8.610;2023-11-21T10:55:45;25.10;;;14.13;;
25319;SDS011;13256;49.012;8.610;2023-11-21T10:58:13;25.35;;;14.50;;
25319;SDS011;13256;49.012;8.610;2023-11-21T11:00:43;23.15;;;13.13;;
25319;SDS011;13256;49.012;8.610;2023-11-21T11:03:11;23.25;;;12.63;;
25319;SDS011;13256;49.012;8.610;2023-11-21T11:05:43;23.77;;;12.68;;
25319;SDS011;13256;49.012;8.610;2023-11-21T11:08:25;27.67;;;13.50;;
25319;SDS011;13256;49.012;8.610;2023-11-21T11:10:57;27.02;;;13.98;;
25319;SDS011;13256;49.012;8.610;2023-11-21T11:13:25;23.42;;;12.60;;
25319;SDS011;13256;49.012;8.610;2023-11-21T11:15:54;23.67;;;12.68;;
25319;SDS011;13256;49.012;8.610;2023-11-21T11:18:33;21.48;;;11.73;;
25319;SDS011;13256;49.012;8.610;2023-11-21T11:38:08;21.60;;;12.07;;
25319;SDS011;13256;49.012;8.610;2023-11-21T11:40:40;20.92;;;11.73;;
25319;SDS011;13256;49.012;8.610;2023-11-21T11:43:22;18.85;;;11.05;;
25319;SDS011;13256;49.012;8.610;2023-11-21T11:45:57;17.90;;;9.88;;
25319;SDS011;13256;49.012;8.610;2023-11-21T11:49:09;19.40;;;10.70;;
25319;SDS011;13256;49.012;8.610;2023-11-21T11:51:35;14.48;;;9.57;;
25319;SDS011;13256;49.012;8.610;2023-11-21T11:54:08;12.93;;;8.52;;
25319;SDS011;13256;49.012;8.610;2023-11-21T11:56:36;14.60;;;8.40;;
25319;SDS011;13256;49.012;8.610;2023-11-21T11:59:05;11.85;;;8.23;;
25319;SDS011;13256;49.012;8.610;2023-11-21T12:01:36;9.30;;;6.57;;
25319;SDS011;13256;49.012;8.610;2023-11-21T12:06:43;10.15;;;6.70;;
25319;SDS011;13256;49.012;8.610;2023-11-21T12:11:47;7.63;;;4.95;;
25319;SDS011;13256;49.012;8.610;2023-11-21T12:14:14;7.97;;;4.43;;
25319;SDS011;13256;49.012;8.610;2023-11-21T12:16:45;7.38;;;4.00;;
25319;SDS011;13256;49.012;8.610;2023-11-21T12:19:12;5.93;;;3.05;;
25319;SDS011;13256;49.012;8.610;2023-11-21T12:21:39;5.80;;;3.25;;
25319;SDS011;13256;49.012;8.610;2023-11-21T12:24:08;4.70;;;2.60;;
25319;SDS011;13256;49.012;8.610;2023-11-21T12:26:35;3.70;;;2.65;;
25319;SDS011;13256;49.012;8.610;2023-11-21T12:29:04;5.00;;;3.17;;
25319;SDS011;13256;49.012;8.610;2023-11-21T12:31:34;7.68;;;4.25;;
25319;SDS011;13256;49.012;8.610;2023-11-21T12:34:04;4.68;;;3.30;;
25319;SDS011;13256;49.012;8.610;2023-11-21T12:36:33;4.07;;;3.13;;
25319;SDS011;13256;49.012;8.610;2023-11-21T12:39:02;3.13;;;2.47;;
25319;SDS011;13256;49.012;8.610;2023-11-21T12:41:29;6.05;;;2.85;;
25319;SDS011;13256;49.012;8.610;2023-11-21T12:43:58;3.35;;;2.78;;
25319;SDS011;13256;49.012;8.610;2023-11-21T12:46:50;3.88;;;2.60;;
25319;SDS011;13256;49.012;8.610;2023-11-21T12:49:20;9.82;;;3.40;;
25319;SDS011;13256;49.012;8.610;2023-11-21T12:54:17;5.22;;;2.05;;
25319;SDS011;13256;49.012;8.610;2023-11-21T12:56:48;4.53;;;2.38;;
25319;SDS011;13256;49.012;8.610;2023-11-21T12:59:16;5.72;;;1.80;;
25319;SDS011;13256;49.012;8.610;2023-11-21T13:01:54;2.42;;;1.65;;
25319;SDS011;13256;49.012;8.610;2023-11-21T13:04:31;4.20;;;2.40;;
25319;SDS011;13256;49.012;8.610;2023-11-21T13:07:04;4.15;;;1.60;;
25319;SDS011;13256;49.012;8.610;2023-11-21T13:09:42;5.50;;;1.73;;
25319;SDS011;13256;49.012;8.610;2023-11-21T13:12:13;3.25;;;1.80;;
25319;SDS011;13256;49.012;8.610;2023-11-21T13:14:42;1.88;;;1.67;;
25319;SDS011;13256;49.012;8.610;2023-11-21T13:17:09;2.28;;;1.70;;
25319;SDS011;13256;49.012;8.610;2023-11-21T13:19:39;3.30;;;2.35;;
25319;SDS011;13256;49.012;8.610;2023-11-21T13:22:09;3.33;;;2.55;;
25319;SDS011;13256;49.012;8.610;2023-11-21T13:24:38;3.67;;;2.90;;
25319;SDS011;13256;49.012;8.610;2023-11-21T13:27:05;4.93;;;3.33;;
25319;SDS011;13256;49.012;8.610;2023-11-21T13:29:33;9.70;;;5.15;;
25319;SDS011;13256;49.012;8.610;2023-11-21T13:32:02;19.50;;;12.15;;
25319;SDS011;13256;49.012;8.610;2023-11-21T13:34:32;14.38;;;8.88;;
25319;SDS011;13256;49.012;8.610;2023-11-21T13:37:05;7.15;;;4.78;;
25319;SDS011;13256;49.012;8.610;2023-11-21T13:39:33;6.50;;;4.60;;
25319;SDS011;13256;49.012;8.610;2023-11-21T13:42:01;8.55;;;5.22;;
25319;SDS011;13256;49.012;8.610;2023-11-21T13:44:34;7.40;;;4.60;;
25319;SDS011;13256;49.012;8.610;2023-11-21T13:47:08;6.60;;;3.80;;
25319;SDS011;13256;49.012;8.610;2023-11-21T13:49:35;5.95;;;4.15;;
25319;SDS011;13256;49.012;8.610;2023-11-21T13:52:08;4.03;;;3.63;;
25319;SDS011;13256;49.012;8.610;2023-11-21T13:54:39;7.97;;;4.13;;
25319;SDS011;13256;49.012;8.610;2023-11-21T13:57:06;7.38;;;4.35;;
25319;SDS011;13256;49.012;8.610;2023-11-21T13:59:34;9.25;;;5.47;;
25319;SDS011;13256;49.012;8.610;2023-11-21T14:02:02;6.30;;;4.40;;
25319;SDS011;13256;49.012;8.610;2023-11-21T14:04:44;6.10;;;4.05;;
25319;SDS011;13256;49.012;8.610;2023-11-21T14:07:14;4.80;;;3.13;;
25319;SDS011;13256;49.012;8.610;2023-11-21T14:09:51;10.32;;;4.50;;
25319;SDS011;13256;49.012;8.610;2023-11-21T14:12:18;6.65;;;4.28;;
25319;SDS011;13256;49.012;8.610;2023-11-21T14:14:45;4.50;;;3.72;;
25319;SDS011;13256;49.012;8.610;2023-11-21T14:17:16;9.32;;;5.03;;
25319;SDS011;13256;49.012;8.610;2023-11-21T14:19:46;8.40;;;4.10;;
25319;SDS011;13256;49.012;8.610;2023-11-21T14:22:15;5.38;;;3.90;;
25319;SDS011;13256;49.012;8.610;2023-11-21T14:24:47;6.45;;;3.90;;
25319;SDS011;13256;49.012;8.610;2023-11-21T14:27:18;6.30;;;3.97;;
25319;SDS011;13256;49.012;8.610;2023-11-21T14:29:45;6.53;;;4.07;;
25319;SDS011;13256;49.012;8.610;2023-11-21T14:32:13;5.85;;;3.72;;
25319;SDS011;13256;49.012;8.610;2023-11-21T14:34:43;7.85;;;4.50;;
25319;SDS011;13256;49.012;8.610;2023-11-21T14:37:13;7.22;;;4.50;;
25319;SDS011;13256;49.012;8.610;2023-11-21T14:39:40;7.68;;;4.40;;
25319;SDS011;13256;49.012;8.610;2023-11-21T14:42:11;12.75;;;5.32;;
25319;SDS011;13256;49.012;8.610;2023-11-21T14:44:46;8.05;;;4.82;;
25319;SDS011;13256;49.012;8.610;2023-11-21T14:47:12;7.43;;;4.80;;
25319;SDS011;13256;49.012;8.610;2023-11-21T14:49:43;7.63;;;4.40;;
25319;SDS011;13256;49.012;8.610;2023-11-21T14:52:36;9.13;;;5.10;;
25319;SDS011;13256;49.012;8.610;2023-11-21T14:55:17;6.22;;;4.35;;
25319;SDS011;13256;49.012;8.610;2023-11-21T14:57:47;9.18;;;4.63;;
25319;SDS011;13256;49.012;8.610;2023-11-21T15:00:20;6.80;;;4.18;;
25319;SDS011;13256;49.012;8.610;2023-11-21T15:03:03;5.47;;;3.78;;
25319;SDS011;13256;49.012;8.610;2023-11-21T15:05:39;15.63;;;6.22;;
25319;SDS011;13256;49.012;8.610;2023-11-21T15:08:09;48.90;;;13.45;;
25319;SDS011;13256;49.012;8.610;2023-11-21T15:10:48;50.60;;;14.05;;
25319;SDS011;13256;49.012;8.610;2023-11-21T15:13:24;19.60;;;8.82;;
25319;SDS011;13256;49.012;8.610;2023-11-21T15:15:56;12.23;;;6.03;;
25319;SDS011;13256;49.012;8.610;2023-11-21T15:18:35;9.13;;;4.85;;
25319;SDS011;13256;49.012;8.610;2023-11-21T15:21:08;13.50;;;4.93;;
25319;SDS011;13256;49.012;8.610;2023-11-21T15:23:38;12.30;;;5.32;;
25319;SDS011;13256;49.012;8.610;2023-11-21T15:26:07;6.45;;;4.55;;
25319;SDS011;13256;49.012;8.610;2023-11-21T15:28:36;9.18;;;4.53;;
25319;SDS011;13256;49.012;8.610;2023-11-21T15:31:09;9.38;;;4.22;;
25319;SDS011;13256;49.012;8.610;2023-11-21T15:33:43;5.65;;;2.72;;
25319;SDS011;13256;49.012;8.610;2023-11-21T15:36:09;6.20;;;2.63;;
25319;SDS011;13256;49.012;8.610;2023-11-21T15:38:37;6.47;;;3.05;;
25319;SDS011;13256;49.012;8.610;2023-11-21T15:41:17;5.35;;;2.90;;
25319;SDS011;13256;49.012;8.610;2023-11-21T15:43:44;4.00;;;2.50;;
25319;SDS011;13256;49.012;8.610;2023-11-21T15:46:12;5.93;;;3.05;;
25319;SDS011;13256;49.012;8.610;2023-11-21T15:48:39;4.95;;;2.85;;
25319;SDS011;13256;49.012;8.610;2023-11-21T15:51:17;5.43;;;2.70;;
25319;SDS011;13256;49.012;8.610;2023-11-21T15:53:46;7.28;;;3.15;;
25319;SDS011;13256;49.012;8.610;2023-11-21T15:56:13;4.68;;;3.53;;
25319;SDS011;13256;49.012;8.610;2023-11-21T15:58:48;6.97;;;4.75;;
25319;SDS011;13256;49.012;8.610;2023-11-21T16:04:18;12.10;;;6.97;;
25319;SDS011;13256;49.012;8.610;2023-11-21T16:06:49;14.05;;;7.00;;
25319;SDS011;13256;49.012;8.610;2023-11-21T16:09:18;11.93;;;6.38;;
25319;SDS011;13256;49.012;8.610;2023-11-21T16:11:50;11.18;;;6.03;;
25319;SDS011;13256;49.012;8.610;2023-11-21T16:14:21;10.55;;;6.15;;
25319;SDS011;13256;49.012;8.610;2023-11-21T16:16:52;15.23;;;6.32;;
25319;SDS011;13256;49.012;8.610;2023-11-21T16:19:33;10.98;;;5.97;;
25319;SDS011;13256;49.012;8.610;2023-11-21T16:22:03;10.57;;;6.22;;
25319;SDS011;13256;49.012;8.610;2023-11-21T16:24:31;11.93;;;6.40;;
25319;SDS011;13256;49.012;8.610;2023-11-21T16:26:59;15.32;;;6.68;;
25319;SDS011;13256;49.012;8.610;2023-11-21T16:29:26;11.95;;;7.07;;
25319;SDS011;13256;49.012;8.610;2023-11-21T16:31:56;11.05;;;6.80;;
25319;SDS011;13256;49.012;8.610;2023-11-21T16:34:26;11.50;;;6.53;;
25319;SDS011;13256;49.012;8.610;2023-11-21T16:36:55;11.73;;;6.82;;
25319;SDS011;13256;49.012;8.610;2023-11-21T16:39:23;10.57;;;6.68;;
25319;SDS011;13256;49.012;8.610;2023-11-21T16:41:50;15.20;;;8.80;;
25319;SDS011;13256;49.012;8.610;2023-11-21T16:44:18;12.60;;;7.57;;
25319;SDS011;13256;49.012;8.610;2023-11-21T16:46:49;14.38;;;7.47;;
25319;SDS011;13256;49.012;8.610;2023-11-21T16:49:19;13.85;;;7.45;;
25319;SDS011;13256;49.012;8.610;2023-11-21T16:51:47;14.98;;;6.88;;
25319;SDS011;13256;49.012;8.610;2023-11-21T16:54:14;10.15;;;7.18;;
25319;SDS011;13256;49.012;8.610;2023-11-21T16:56:50;12.20;;;7.18;;
25319;SDS011;13256;49.012;8.610;2023-11-21T16:59:16;14.95;;;6.43;;
25319;SDS011;13256;49.012;8.610;2023-11-21T17:01:44;12.13;;;6.63;;
25319;SDS011;13256;49.012;8.610;2023-11-21T17:04:38;10.88;;;6.75;;
25319;SDS011;13256;49.012;8.610;2023-11-21T17:07:16;14.23;;;6.78;;
25319;SDS011;13256;49.012;8.610;2023-11-21T17:10:21;13.43;;;7.82;;
25319;SDS011;13256;49.012;8.610;2023-11-21T17:12:48;16.35;;;7.53;;
25319;SDS011;13256;49.012;8.610;2023-11-21T17:15:15;12.32;;;7.55;;
25319;SDS011;13256;49.012;8.610;2023-11-21T17:17:43;12.13;;;7.85;;
25319;SDS011;13256;49.012;8.610;2023-11-21T17:20:11;12.30;;;7.15;;
25319;SDS011;13256;49.012;8.610;2023-11-21T17:22:38;13.45;;;8.13;;
25319;SDS011;13256;49.012;8.610;2023-11-21T17:25:07;15.25;;;7.63;;
25319;SDS011;13256;49.012;8.610;2023-11-21T17:27:35;14.15;;;8.77;;
25319;SDS011;13256;49.012;8.610;2023-11-21T17:30:02;13.02;;;8.27;;
25319;SDS011;13256;49.012;8.610;2023-11-21T17:32:29;13.43;;;9.18;;
25319;SDS011;13256;49.012;8.610;2023-11-21T17:34:58;13.32;;;9.43;;
25319;SDS011;13256;49.012;8.610;2023-11-21T17:37:27;25.38;;;13.20;;
25319;SDS011;13256;49.012;8.610;2023-11-21T17:39:56;34.35;;;16.77;;
25319;SDS011;13256;49.012;8.610;2023-11-21T17:42:23;38.03;;;18.88;;
25319;SDS011;13256;49.012;8.610;2023-11-21T17:44:50;34.63;;;19.33;;
25319;SDS011;13256;49.012;8.610;2023-11-21T17:47:19;32.35;;;18.27;;
25319;SDS011;13256;49.012;8.610;2023-11-21T17:50:14;26.85;;;16.40;;
25319;SDS011;13256;49.012;8.610;2023-11-21T17:52:43;23.50;;;14.15;;
25319;SDS011;13256;49.012;8.610;2023-11-21T17:55:15;26.42;;;14.35;;
25319;SDS011;13256;49.012;8.610;2023-11-21T17:57:50;26.15;;;15.23;;
25319;SDS011;13256;49.012;8.610;2023-11-21T18:00:17;28.88;;;16.50;;
25319;SDS011;13256;49.012;8.610;2023-11-21T18:05:19;28.40;;;13.30;;
25319;SDS011;13256;49.012;8.610;2023-11-21T18:08:06;22.10;;;9.82;;
25319;SDS011;13256;49.012;8.610;2023-11-21T18:10:42;21.85;;;9.43;;
25319;SDS011;13256;49.012;8.610;2023-11-21T18:13:08;24.90;;;9.57;;
25319;SDS011;13256;49.012;8.610;2023-11-21T18:15:37;16.88;;;9.50;;
25319;SDS011;13256;49.012;8.610;2023-11-21T18:18:07;18.55;;;9.98;;
25319;SDS011;13256;49.012;8.610;2023-11-21T18:20:35;15.50;;;8.32;;
25319;SDS011;13256;49.012;8.610;2023-11-21T18:23:02;15.93;;;8.48;;
25319;SDS011;13256;49.012;8.610;2023-11-21T18:25:31;20.02;;;8.63;;
25319;SDS011;13256;49.012;8.610;2023-11-21T18:28:01;16.85;;;8.60;;
25319;SDS011;13256;49.012;8.610;2023-11-21T18:30:31;22.23;;;11.15;;
25319;SDS011;13256;49.012;8.610;2023-11-21T18:33:01;27.98;;;14.93;;